createdAt,value
2023-04-11T00:01:45.735Z,69.50
2023-04-11T00:04:13.620Z,69.50
2023-04-11T00:06:40.563Z,69.40
2023-04-11T00:09:07.410Z,69.30
2023-04-11T00:11:34.221Z,69.10
2023-04-11T00:14:01.077Z,69.10
2023-04-11T00:16:29.288Z,69.00
2023-04-11T00:18:56.429Z,68.80
2023-04-11T00:21:23.351Z,68.70
2023-04-11T00:23:52.061Z,68.50
2023-04-11T00:26:19.053Z,68.40
2023-04-11T00:28:45.990Z,68.20
2023-04-11T00:31:12.819Z,68.10
2023-04-11T00:33:41.198Z,68.00
2023-04-11T00:36:09.151Z,67.90
2023-04-11T00:38:35.927Z,68.00
2023-04-11T00:41:02.827Z,68.00
2023-04-11T00:43:29.635Z,67.80
2023-04-11T00:45:56.813Z,67.80
2023-04-11T00:48:23.659Z,67.70
2023-04-11T00:50:52.045Z,67.60
2023-04-11T00:53:18.939Z,67.60
2023-04-11T00:55:45.886Z,67.70
2023-04-11T00:58:13.948Z,67.60
2023-04-11T01:00:40.812Z,67.70
2023-04-11T01:03:07.682Z,67.80
2023-04-11T01:05:35.549Z,67.90
2023-04-11T01:08:04.341Z,67.90
2023-04-11T01:10:31.351Z,68.00
2023-04-11T01:13:00.308Z,68.10
2023-04-11T01:15:27.555Z,68.20
2023-04-11T01:17:54.797Z,68.40
2023-04-11T01:20:22.062Z,68.50
2023-04-11T01:22:49.617Z,68.60
2023-04-11T01:25:20.237Z,68.70
2023-04-11T01:27:47.078Z,68.80
2023-04-11T01:30:14.569Z,69.00
2023-04-11T01:32:41.754Z,69.10
2023-04-11T01:35:10.104Z,69.20
2023-04-11T01:37:36.955Z,69.20
2023-04-11T01:40:04.546Z,69.30
2023-04-11T01:42:33.314Z,69.30
2023-04-11T01:45:00.834Z,69.30
2023-04-11T01:47:27.710Z,69.40
2023-04-11T01:49:54.526Z,69.60
2023-04-11T01:52:21.354Z,69.80
2023-04-11T01:54:48.147Z,69.70
2023-04-11T01:57:14.940Z,70.50
2023-04-11T01:59:43.129Z,71.20
2023-04-11T02:02:10.047Z,70.60
2023-04-11T02:04:37.037Z,69.90
2023-04-11T02:07:03.837Z,68.90
2023-04-11T02:09:30.653Z,67.10
2023-04-11T02:11:57.663Z,67.20
2023-04-11T02:14:24.766Z,67.00
2023-04-11T02:16:54.494Z,66.30
2023-04-11T02:19:21.758Z,65.60
2023-04-11T02:21:49.157Z,65.30
2023-04-11T02:24:16.054Z,64.80
2023-04-11T02:26:42.967Z,64.50
2023-04-11T02:29:10.396Z,64.30
2023-04-11T02:31:37.915Z,63.80
2023-04-11T02:34:06.265Z,63.40
2023-04-11T02:36:33.074Z,63.40
2023-04-11T02:38:59.870Z,63.10
2023-04-11T02:41:26.749Z,62.10
2023-04-11T02:43:54.196Z,61.90
2023-04-11T02:46:21.840Z,61.80
2023-04-11T02:48:48.827Z,61.80
2023-04-11T02:51:17.043Z,61.80
2023-04-11T02:53:43.848Z,62.10
2023-04-11T02:56:10.884Z,62.30
2023-04-11T02:58:38.181Z,62.50
2023-04-11T03:01:06.265Z,62.30
2023-04-11T03:03:33.197Z,62.30
2023-04-11T03:06:00.038Z,62.50
2023-04-11T03:08:28.181Z,62.10
2023-04-11T03:10:55.306Z,62.20
2023-04-11T03:13:22.328Z,62.40
2023-04-11T03:15:49.168Z,60.90
2023-04-11T03:18:15.975Z,60.90
2023-04-11T03:20:42.789Z,60.90
2023-04-11T03:23:09.548Z,61.70
2023-04-11T03:25:37.820Z,62.20
2023-04-11T03:28:05.082Z,62.50
2023-04-11T03:30:32.007Z,62.60
2023-04-11T03:32:59.052Z,62.70
2023-04-11T03:35:25.881Z,62.10
2023-04-11T03:37:52.697Z,62.20
2023-04-11T03:40:19.748Z,62.20
2023-04-11T03:42:48.127Z,62.50
2023-04-11T03:45:15.275Z,62.50
2023-04-11T03:47:42.253Z,62.40
2023-04-11T03:50:09.931Z,62.20
2023-04-11T03:52:36.811Z,62.20
2023-04-11T03:55:04.367Z,62.10
2023-04-11T03:57:31.115Z,61.10
2023-04-11T03:59:59.249Z,60.60
2023-04-11T04:02:26.232Z,60.60
2023-04-11T04:04:53.602Z,60.30
2023-04-11T04:07:20.472Z,60.50
2023-04-11T04:09:47.274Z,59.80
2023-04-11T04:12:14.097Z,60.50
2023-04-11T04:14:40.902Z,60.50
2023-04-11T04:17:09.119Z,60.40
2023-04-11T04:19:35.890Z,60.20
2023-04-11T04:22:02.671Z,60.60
2023-04-11T04:24:29.647Z,60.50
2023-04-11T04:26:56.401Z,60.80
2023-04-11T04:29:23.220Z,60.80
2023-04-11T04:31:50.324Z,61.20
2023-04-11T04:34:18.510Z,61.40
2023-04-11T04:36:45.215Z,61.80
2023-04-11T04:39:12.768Z,62.10
2023-04-11T04:41:39.616Z,62.40
2023-04-11T04:44:06.383Z,62.00
2023-04-11T04:46:33.125Z,62.00
2023-04-11T04:49:02.095Z,63.60
2023-04-11T04:51:30.469Z,65.40
2023-04-11T04:53:57.561Z,64.60
2023-04-11T04:56:24.593Z,64.80
2023-04-11T04:58:51.357Z,64.80
2023-04-11T05:01:18.138Z,63.90
2023-04-11T05:03:44.938Z,63.30
2023-04-11T05:06:11.760Z,63.50
2023-04-11T05:08:39.911Z,64.10
2023-04-11T05:11:06.885Z,64.50
2023-04-11T05:13:34.350Z,64.60
2023-04-11T05:16:01.128Z,65.20
2023-04-11T05:18:27.839Z,66.10
2023-04-11T05:20:54.545Z,70.70
2023-04-11T05:23:21.336Z,74.30
2023-04-11T05:25:49.450Z,77.60
2023-04-11T05:28:16.199Z,78.90
2023-04-11T05:30:43.060Z,78.70
2023-04-11T05:33:09.886Z,77.90
2023-04-11T05:35:36.784Z,76.60
2023-04-11T05:38:03.619Z,75.90
2023-04-11T05:40:30.382Z,75.10
2023-04-11T05:42:58.786Z,74.90
2023-04-11T05:45:25.537Z,74.50
2023-04-11T05:47:52.322Z,74.60
2023-04-11T05:50:19.099Z,74.60
2023-04-11T05:52:45.878Z,75.80
2023-04-11T05:55:12.775Z,76.40
2023-04-11T05:57:39.546Z,76.80
2023-04-11T06:00:09.308Z,77.00
2023-04-11T06:02:36.208Z,77.90
2023-04-11T06:05:03.155Z,78.60
2023-04-11T06:07:29.951Z,79.50
2023-04-11T06:09:56.739Z,80.40
2023-04-11T06:12:23.567Z,81.30
2023-04-11T06:14:50.370Z,81.80
2023-04-11T06:17:18.540Z,82.30
2023-04-11T06:19:46.491Z,82.80
2023-04-11T06:22:13.248Z,83.10
2023-04-11T06:24:40.940Z,83.40
2023-04-11T06:27:08.438Z,83.30
2023-04-11T06:29:35.194Z,83.50
2023-04-11T06:32:02.056Z,84.00
2023-04-11T06:34:30.207Z,84.30
2023-04-11T06:36:56.943Z,84.00
2023-04-11T06:39:23.834Z,84.50
2023-04-11T06:41:51.376Z,85.60
2023-04-11T06:44:18.194Z,87.80
2023-04-11T06:46:44.965Z,90.60
2023-04-11T06:49:11.895Z,91.90
2023-04-11T06:51:40.170Z,93.30
2023-04-11T06:54:07.013Z,94.90
2023-04-11T06:56:34.772Z,97.90
2023-04-11T06:59:01.503Z,99.90
2023-04-11T07:01:28.337Z,99.90
2023-04-11T07:03:55.425Z,99.90
2023-04-11T07:06:22.756Z,99.90
2023-04-11T07:08:51.865Z,99.90
2023-04-11T07:11:20.022Z,99.90
2023-04-11T07:13:47.149Z,99.90
2023-04-11T07:16:13.949Z,99.90
2023-04-11T07:18:40.784Z,99.90
2023-04-11T07:21:11.763Z,99.90
2023-04-11T07:23:38.595Z,99.90
2023-04-11T07:26:07.433Z,99.90
2023-04-11T07:28:34.361Z,99.90
2023-04-11T07:31:01.106Z,99.90
2023-04-11T07:33:27.895Z,99.90
2023-04-11T07:35:54.781Z,99.90
2023-04-11T07:38:21.525Z,99.90
2023-04-11T07:40:48.305Z,99.90
2023-04-11T07:43:16.436Z,99.90
2023-04-11T07:45:43.181Z,99.90
2023-04-11T07:48:09.995Z,99.90
2023-04-11T07:50:36.734Z,99.90
2023-04-11T07:53:03.536Z,99.90
2023-04-11T07:55:30.976Z,99.90
2023-04-11T07:57:57.747Z,99.90
2023-04-11T08:00:27.089Z,99.90
2023-04-11T08:02:54.139Z,99.90
2023-04-11T08:05:21.232Z,99.90
2023-04-11T08:07:48.133Z,99.90
2023-04-11T08:10:15.056Z,99.90
2023-04-11T08:12:41.952Z,99.90
2023-04-11T08:15:09.202Z,99.90
2023-04-11T08:17:37.563Z,99.90
2023-04-11T08:20:05.236Z,99.90
2023-04-11T08:22:32.242Z,99.90
2023-04-11T08:25:00.051Z,99.90
2023-04-11T08:27:26.768Z,99.90
2023-04-11T08:29:53.569Z,99.90
2023-04-11T08:32:20.338Z,99.90
2023-04-11T08:34:48.503Z,99.90
2023-04-11T08:37:15.270Z,99.90
2023-04-11T08:39:42.109Z,99.90
2023-04-11T08:42:21.813Z,99.90
2023-04-11T08:44:52.846Z,99.90
2023-04-11T08:47:19.674Z,99.90
2023-04-11T08:49:47.879Z,99.90
2023-04-11T08:52:15.344Z,99.90
2023-04-11T08:54:42.088Z,99.90
2023-04-11T08:57:08.867Z,99.90
2023-04-11T08:59:35.643Z,99.90
2023-04-11T09:02:07.800Z,99.90
2023-04-11T09:04:39.866Z,99.90
2023-04-11T09:07:08.640Z,99.90
2023-04-11T09:09:35.480Z,99.90
2023-04-11T09:12:02.750Z,99.90
2023-04-11T09:14:30.211Z,99.90
2023-04-11T09:16:59.248Z,99.90
2023-04-11T09:19:27.906Z,99.90
2023-04-11T09:21:55.712Z,99.90
2023-04-11T09:24:23.868Z,99.90
2023-04-11T09:26:51.238Z,99.90
2023-04-11T09:29:35.553Z,99.90
2023-04-11T09:32:02.187Z,99.90
2023-04-11T09:34:28.945Z,99.90
2023-04-11T09:36:55.977Z,99.90
2023-04-11T09:39:24.288Z,99.90
2023-04-11T09:41:51.071Z,99.90
2023-04-11T09:44:18.050Z,99.90
2023-04-11T09:46:57.388Z,99.90
2023-04-11T09:49:24.492Z,99.90
2023-04-11T09:51:52.036Z,99.90
2023-04-11T09:54:20.844Z,99.90
2023-04-11T09:56:49.144Z,99.90
2023-04-11T09:59:15.984Z,99.90
2023-04-11T10:01:44.391Z,99.90
2023-04-11T10:04:11.314Z,99.90
2023-04-11T10:06:45.489Z,99.90
2023-04-11T10:09:13.750Z,99.90
2023-04-11T10:11:41.543Z,99.90
2023-04-11T10:14:09.871Z,99.90
2023-04-11T10:16:36.658Z,99.90
2023-04-11T10:19:24.862Z,99.90
2023-04-11T10:21:51.679Z,99.90
2023-04-11T10:24:19.229Z,99.90
2023-04-11T10:26:51.119Z,99.90
2023-04-11T10:29:51.849Z,99.90
2023-04-11T10:32:25.106Z,99.90
2023-04-11T10:35:20.348Z,99.90
2023-04-11T10:37:47.153Z,99.90
2023-04-11T10:40:13.909Z,99.90
2023-04-11T10:42:41.904Z,99.90
2023-04-11T10:45:17.916Z,99.90
2023-04-11T10:47:59.733Z,99.90
2023-04-11T10:50:40.162Z,99.90
2023-04-11T10:53:08.581Z,99.90
2023-04-11T10:55:47.271Z,99.90
2023-04-11T10:58:14.992Z,99.90
2023-04-11T11:01:32.114Z,99.90
2023-04-11T11:04:12.113Z,99.90
2023-04-11T11:06:47.201Z,99.90
2023-04-11T11:09:22.225Z,99.90
2023-04-11T11:12:05.448Z,99.60
2023-04-11T11:14:32.254Z,99.70
2023-04-11T11:17:01.521Z,98.90
2023-04-11T11:19:29.906Z,98.30
2023-04-11T11:21:56.752Z,97.70
2023-04-11T11:24:25.110Z,97.30
2023-04-11T11:26:54.582Z,94.40
2023-04-11T11:29:30.086Z,95.00
2023-04-11T11:31:56.944Z,94.20
2023-04-11T11:34:29.364Z,92.70
2023-04-11T11:36:56.598Z,92.60
2023-04-11T11:39:23.980Z,91.70
2023-04-11T11:41:50.968Z,91.40
2023-04-11T11:44:25.056Z,91.30
2023-04-11T11:47:01.675Z,91.50
2023-04-11T11:49:43.315Z,92.50
2023-04-11T11:52:10.615Z,91.30
2023-04-11T11:54:43.884Z,91.70
2023-04-11T11:57:10.851Z,90.60
2023-04-11T11:59:37.654Z,91.50
2023-04-11T12:02:04.685Z,90.60
2023-04-11T12:04:33.227Z,88.80
2023-04-11T12:07:08.326Z,86.30
2023-04-11T12:09:35.092Z,87.70
2023-04-11T12:12:01.947Z,89.70
2023-04-11T12:14:28.697Z,90.10
2023-04-11T12:16:55.493Z,90.20
2023-04-11T12:19:22.318Z,90.00
2023-04-11T12:21:50.591Z,89.50
2023-04-11T12:24:17.436Z,83.60
2023-04-11T12:26:57.709Z,81.50
2023-04-11T12:29:30.887Z,79.30
2023-04-11T12:31:57.677Z,78.30
2023-04-11T12:34:24.818Z,77.30
2023-04-11T12:36:52.997Z,76.10
2023-04-11T12:39:19.762Z,75.10
2023-04-11T12:41:46.519Z,75.00
2023-04-11T12:44:13.333Z,74.70
2023-04-11T12:46:40.456Z,76.80
2023-04-11T12:49:07.259Z,73.20
2023-04-11T12:51:34.076Z,71.50
2023-04-11T12:54:02.275Z,71.50
2023-04-11T12:56:29.062Z,73.90
2023-04-11T12:58:56.093Z,73.00
2023-04-11T13:01:23.051Z,72.60
2023-04-11T13:03:50.003Z,74.20
2023-04-11T13:06:16.841Z,74.20
2023-04-11T13:08:43.612Z,73.10
2023-04-11T13:11:11.744Z,69.50
2023-04-11T13:13:38.632Z,68.30
2023-04-11T13:16:06.103Z,67.30
2023-04-11T13:18:32.853Z,66.30
2023-04-11T13:20:59.577Z,66.20
2023-04-11T13:23:26.326Z,66.60
2023-04-11T13:25:53.192Z,65.60
2023-04-11T13:28:21.269Z,68.70
2023-04-11T13:30:48.074Z,74.70
2023-04-11T13:33:14.981Z,75.70
2023-04-11T13:35:41.763Z,77.60
2023-04-11T13:38:08.526Z,77.90
2023-04-11T13:40:35.270Z,79.30
2023-04-11T13:43:01.995Z,78.10
2023-04-11T13:45:30.176Z,77.10
2023-04-11T13:47:57.051Z,76.80
2023-04-11T13:50:23.820Z,75.60
2023-04-11T13:52:50.588Z,75.70
2023-04-11T13:55:17.648Z,74.30
2023-04-11T13:57:44.470Z,73.10
2023-04-11T14:00:57.530Z,74.10
2023-04-11T14:03:26.335Z,76.60
2023-04-11T14:05:53.167Z,77.30
2023-04-11T14:08:19.943Z,77.30
2023-04-11T14:10:46.667Z,76.40
2023-04-11T14:13:13.497Z,76.60
2023-04-11T14:15:40.280Z,73.40
2023-04-11T14:18:07.069Z,72.30
2023-04-11T14:20:35.352Z,71.50
2023-04-11T14:23:02.164Z,71.80
2023-04-11T14:25:29.032Z,69.50
2023-04-11T14:27:55.819Z,67.10
2023-04-11T14:30:22.633Z,66.80
2023-04-11T14:32:49.542Z,65.70
2023-04-11T14:35:16.348Z,67.50
2023-04-11T14:37:44.492Z,70.90
2023-04-11T14:40:13.115Z,73.10
2023-04-11T14:42:40.036Z,75.50
2023-04-11T14:45:07.809Z,77.40
2023-04-11T14:47:34.972Z,78.90
2023-04-11T14:50:01.854Z,78.90
2023-04-11T14:52:28.642Z,78.00
2023-04-11T14:54:57.113Z,79.20
2023-04-11T14:57:23.899Z,81.10
2023-04-11T14:59:50.781Z,82.00
2023-04-11T15:02:17.568Z,81.60
2023-04-11T15:04:44.486Z,81.40
2023-04-11T15:07:11.235Z,79.70
2023-04-11T15:09:38.077Z,79.40
2023-04-11T15:12:06.488Z,79.10
2023-04-11T15:14:33.298Z,78.90
2023-04-11T15:17:00.127Z,79.20
2023-04-11T15:19:26.898Z,75.70
2023-04-11T15:21:53.711Z,67.30
2023-04-11T15:24:20.502Z,65.40
2023-04-11T15:26:47.276Z,62.90
2023-04-11T15:29:15.701Z,59.50
2023-04-11T15:31:42.628Z,59.00
2023-04-11T15:34:09.431Z,59.60
2023-04-11T15:36:37.051Z,58.90
2023-04-11T15:39:04.183Z,59.50
2023-04-11T15:41:30.948Z,60.50
2023-04-11T15:43:58.173Z,61.00
2023-04-11T15:46:26.580Z,62.50
2023-04-11T15:48:53.467Z,63.90
2023-04-11T15:51:20.222Z,64.00
2023-04-11T15:53:47.006Z,64.50
2023-04-11T15:56:13.803Z,65.60
2023-04-11T15:58:40.590Z,62.10
2023-04-11T16:01:17.396Z,57.60
2023-04-11T16:03:45.762Z,55.30
2023-04-11T16:06:12.779Z,53.20
2023-04-11T16:08:39.564Z,52.60
2023-04-11T16:11:06.796Z,52.70
2023-04-11T16:13:33.605Z,52.30
2023-04-11T16:16:00.450Z,52.30
2023-04-11T16:18:27.290Z,53.30
2023-04-11T16:20:55.404Z,54.10
2023-04-11T16:23:22.144Z,54.50
2023-04-11T16:25:48.927Z,55.10
2023-04-11T16:28:15.767Z,55.40
2023-04-11T16:30:42.597Z,54.80
2023-04-11T16:33:09.384Z,54.60
2023-04-11T16:35:36.366Z,56.00
2023-04-11T16:38:04.483Z,57.00
2023-04-11T16:40:33.158Z,56.10
2023-04-11T16:43:00.050Z,54.80
2023-04-11T16:45:26.783Z,53.90
2023-04-11T16:47:53.582Z,54.10
2023-04-11T16:50:20.641Z,54.10
2023-04-11T16:52:47.384Z,54.40
2023-04-11T16:55:15.933Z,54.60
2023-04-11T16:57:42.776Z,54.30
2023-04-11T17:00:10.821Z,54.50
2023-04-11T17:02:37.710Z,55.10
2023-04-11T17:05:05.546Z,55.00
2023-04-11T17:07:32.368Z,57.50
2023-04-11T17:09:59.182Z,59.50
2023-04-11T17:12:27.335Z,61.80
2023-04-11T17:14:54.177Z,64.20
2023-04-11T17:17:21.022Z,66.50
2023-04-11T17:19:47.886Z,68.30
2023-04-11T17:22:14.803Z,70.20
2023-04-11T17:24:41.705Z,71.40
2023-04-11T17:27:08.482Z,73.00
2023-04-11T17:29:36.608Z,73.70
2023-04-11T17:32:03.382Z,74.20
2023-04-11T17:34:30.163Z,74.90
2023-04-11T17:36:57.180Z,75.50
2023-04-11T17:39:23.990Z,76.40
2023-04-11T17:41:50.749Z,77.60
2023-04-11T17:44:17.543Z,77.60
2023-04-11T17:46:45.699Z,78.20
2023-04-11T17:49:12.532Z,79.00
2023-04-11T17:51:45.948Z,79.70
2023-04-11T17:54:16.079Z,80.20
2023-04-11T17:56:42.884Z,80.90
2023-04-11T17:59:09.804Z,81.50
2023-04-11T18:01:36.558Z,82.20
2023-04-11T18:04:04.953Z,83.00
2023-04-11T18:06:31.746Z,83.60
2023-04-11T18:08:58.507Z,84.10
2023-04-11T18:11:25.299Z,84.70
2023-04-11T18:13:52.072Z,85.10
2023-04-11T18:16:18.983Z,85.60
2023-04-11T18:18:46.869Z,86.40
2023-04-11T18:21:15.014Z,87.00
2023-04-11T18:23:41.814Z,87.60
2023-04-11T18:26:08.653Z,88.20
2023-04-11T18:28:35.450Z,88.40
2023-04-11T18:31:02.272Z,89.00
2023-04-11T18:33:29.125Z,88.70
2023-04-11T18:35:56.072Z,88.80
2023-04-11T18:38:24.299Z,88.90
2023-04-11T18:40:55.139Z,89.60
2023-04-11T18:43:22.793Z,90.20
2023-04-11T18:45:49.603Z,89.70
2023-04-11T18:48:16.413Z,90.10
2023-04-11T18:50:43.236Z,90.30
2023-04-11T18:53:13.072Z,90.40
2023-04-11T18:55:42.113Z,90.70
2023-04-11T18:58:09.731Z,90.40
2023-04-11T19:00:37.780Z,90.60
2023-04-11T19:03:04.700Z,91.00
2023-04-11T19:05:32.227Z,90.80
2023-04-11T19:07:59.324Z,91.00
2023-04-11T19:10:26.049Z,91.20
2023-04-11T19:12:54.151Z,91.20
2023-04-11T19:15:21.063Z,91.30
2023-04-11T19:17:47.986Z,91.50
2023-04-11T19:20:14.850Z,91.60
2023-04-11T19:22:41.768Z,91.80
2023-04-11T19:25:10.246Z,91.80
2023-04-11T19:27:37.103Z,92.00
2023-04-11T19:30:06.566Z,92.20
2023-04-11T19:32:33.339Z,92.20
2023-04-11T19:35:00.156Z,92.20
2023-04-11T19:37:26.917Z,92.50
2023-04-11T19:39:53.664Z,92.70
2023-04-11T19:42:20.404Z,92.90
2023-04-11T19:44:47.173Z,92.80
2023-04-11T19:47:15.292Z,92.80
2023-04-11T19:49:42.098Z,92.90
2023-04-11T19:52:08.878Z,93.00
2023-04-11T19:54:35.620Z,93.10
2023-04-11T19:57:02.339Z,93.00
2023-04-11T19:59:29.102Z,93.40
2023-04-11T20:01:55.893Z,93.50
2023-04-11T20:04:24.122Z,93.50
2023-04-11T20:06:50.973Z,93.50
2023-04-11T20:09:17.721Z,93.70
2023-04-11T20:11:44.544Z,93.70
2023-04-11T20:14:11.276Z,93.90
2023-04-11T20:16:38.090Z,93.80
2023-04-11T20:19:04.846Z,94.00
2023-04-11T20:21:32.915Z,94.20
2023-04-11T20:23:59.966Z,94.30
2023-04-11T20:26:26.793Z,94.40
2023-04-11T20:28:53.519Z,94.60
2023-04-11T20:31:20.287Z,94.90
2023-04-11T20:33:47.119Z,94.80
2023-04-11T20:36:13.975Z,94.80
2023-04-11T20:38:42.510Z,95.00
2023-04-11T20:41:09.359Z,95.70
2023-04-11T20:43:36.260Z,95.80
2023-04-11T20:46:03.445Z,96.00
2023-04-11T20:48:30.256Z,96.60
2023-04-11T20:50:57.027Z,97.10
2023-04-11T20:53:24.638Z,97.40
2023-04-11T20:55:53.739Z,97.40
2023-04-11T20:58:20.489Z,97.20
2023-04-11T21:00:47.315Z,97.00
2023-04-11T21:03:14.203Z,96.90
2023-04-11T21:05:41.034Z,96.80
2023-04-11T21:08:07.803Z,96.80
2023-04-11T21:10:34.673Z,96.80
2023-04-11T21:13:02.983Z,96.90
2023-04-11T21:15:29.861Z,97.00
2023-04-11T21:17:56.762Z,96.90
2023-04-11T21:20:23.539Z,97.00
2023-04-11T21:22:51.538Z,96.90
2023-04-11T21:25:18.781Z,96.80
2023-04-11T21:27:45.554Z,96.60
2023-04-11T21:30:14.555Z,96.70
2023-04-11T21:32:41.578Z,96.70
2023-04-11T21:35:10.087Z,96.70
2023-04-11T21:37:37.066Z,96.80
2023-04-11T21:40:04.555Z,97.00
2023-04-11T21:42:31.486Z,97.10
2023-04-11T21:44:58.283Z,97.30
2023-04-11T21:47:26.801Z,97.20
2023-04-11T21:49:53.596Z,97.40
2023-04-11T21:52:20.415Z,97.40
2023-04-11T21:54:47.228Z,97.60
2023-04-11T21:57:14.176Z,97.70
2023-04-11T21:59:41.010Z,97.90
2023-04-11T22:02:07.964Z,98.30
2023-04-11T22:04:47.301Z,98.20
2023-04-11T22:07:18.425Z,98.20
2023-04-11T22:09:45.425Z,98.50
2023-04-11T22:12:14.268Z,98.50
2023-04-11T22:14:41.092Z,98.50
2023-04-11T22:17:07.990Z,98.60
2023-04-11T22:19:36.187Z,98.60
2023-04-11T22:22:03.036Z,98.90
2023-04-11T22:24:29.816Z,98.80
2023-04-11T22:26:56.910Z,98.80
2023-04-11T22:29:23.809Z,98.70
2023-04-11T22:31:50.729Z,98.80
2023-04-11T22:34:17.544Z,98.80
2023-04-11T22:36:45.663Z,98.80
2023-04-11T22:39:12.464Z,98.90
2023-04-11T22:41:39.213Z,99.10
2023-04-11T22:44:06.199Z,99.00
2023-04-11T22:46:35.099Z,99.00
2023-04-11T22:49:02.128Z,99.00
2023-04-11T22:51:29.042Z,99.00
2023-04-11T22:53:57.315Z,98.90
2023-04-11T22:56:24.319Z,98.90
2023-04-11T22:58:51.107Z,99.00
2023-04-11T23:01:17.951Z,99.00
2023-04-11T23:03:45.021Z,98.90
2023-04-11T23:06:11.853Z,98.90
2023-04-11T23:08:38.692Z,99.00
2023-04-11T23:11:07.273Z,99.00
2023-04-11T23:13:34.195Z,99.00
2023-04-11T23:16:01.141Z,99.00
2023-04-11T23:18:27.961Z,99.00
2023-04-11T23:20:54.790Z,99.00
2023-04-11T23:23:21.661Z,99.00
2023-04-11T23:25:48.535Z,99.00
2023-04-11T23:28:16.752Z,99.00
2023-04-11T23:30:43.630Z,99.00
2023-04-11T23:33:10.513Z,99.00
2023-04-11T23:35:37.323Z,99.10
2023-04-11T23:38:04.297Z,99.00
2023-04-11T23:40:31.785Z,99.00
2023-04-11T23:42:58.558Z,99.10
2023-04-11T23:45:26.809Z,99.10
2023-04-11T23:47:53.691Z,99.10
2023-04-11T23:50:21.123Z,99.10
2023-04-11T23:52:47.952Z,99.10
2023-04-11T23:55:14.981Z,99.10
2023-04-11T23:57:42.028Z,99.10
